Aviation Digital Data Service (ADDS)

Output produced by METARs form (1948 UTC 21 September 2021)
found at http://aviationweather.gov/metar/data/
 
KVNY 211731Z 2118/2218 00000KT P6SM SKC 
     FM212000 14010KT P6SM SKC 
     FM220000 29008KT P6SM SKC 
     FM220300 VRB03KT P6SM SKC